createdAt,value
2023-02-23T00:02:32.813Z,2.20
2023-02-23T00:07:36.931Z,2.40
2023-02-23T00:12:40.343Z,2.30
2023-02-23T00:17:48.004Z,2.08
2023-02-23T00:22:51.346Z,2.10
2023-02-23T00:27:55.066Z,2.20
2023-02-23T00:32:59.762Z,1.80
2023-02-23T00:38:03.605Z,1.80
2023-02-23T00:43:06.869Z,1.50
2023-02-23T00:48:11.784Z,1.40
2023-02-23T00:53:15.397Z,1.95
2023-02-23T00:58:18.644Z,1.20
2023-02-23T01:03:23.389Z,1.00
2023-02-23T01:08:28.136Z,1.27
2023-02-23T01:13:31.405Z,1.33
2023-02-23T01:18:36.970Z,1.20
2023-02-23T01:23:40.233Z,1.30
2023-02-23T01:28:43.480Z,1.40
2023-02-23T01:33:48.220Z,1.15
2023-02-23T01:38:51.462Z,0.75
2023-02-23T01:43:58.994Z,1.20
2023-02-23T01:49:05.264Z,1.08
2023-02-23T01:54:14.718Z,1.10
2023-02-23T01:59:19.138Z,1.13
2023-02-23T02:04:26.046Z,1.37
2023-02-23T02:09:29.525Z,1.20
2023-02-23T02:14:33.468Z,1.10
2023-02-23T02:20:32.847Z,1.15
2023-02-23T02:25:54.079Z,1.23
2023-02-23T02:31:36.360Z,1.40
2023-02-23T02:37:20.306Z,1.50
2023-02-23T02:42:35.576Z,1.65
2023-02-23T02:52:55.516Z,1.55
2023-02-23T02:58:02.378Z,1.20
2023-02-23T03:03:23.249Z,1.20
2023-02-23T03:08:53.319Z,1.63
2023-02-23T03:14:29.796Z,1.70
2023-02-23T03:19:55.374Z,1.73
2023-02-23T03:30:44.635Z,1.40
2023-02-23T03:36:11.127Z,1.48
2023-02-23T03:41:36.733Z,1.67
2023-02-23T03:52:23.768Z,1.58
2023-02-23T03:57:49.696Z,1.88
2023-02-23T04:03:13.119Z,1.35
2023-02-23T04:08:37.812Z,1.92
2023-02-23T04:13:47.595Z,2.10
2023-02-23T04:18:50.941Z,2.00
2023-02-23T04:23:54.090Z,1.98
2023-02-23T04:28:58.620Z,1.90
2023-02-23T04:34:01.789Z,1.63
2023-02-23T04:39:05.116Z,1.60
2023-02-23T04:44:09.661Z,1.83
2023-02-23T04:49:12.853Z,2.03
2023-02-23T04:54:15.984Z,1.70
2023-02-23T04:59:20.503Z,1.75
2023-02-23T05:04:23.927Z,2.03
2023-02-23T05:09:27.182Z,2.00
2023-02-23T05:14:31.772Z,1.95
2023-02-23T05:19:34.919Z,2.30
2023-02-23T05:24:38.193Z,2.08
2023-02-23T05:29:42.878Z,2.15
2023-02-23T05:34:46.009Z,1.60
2023-02-23T05:39:49.314Z,1.65
2023-02-23T05:44:53.944Z,1.60
2023-02-23T05:49:57.198Z,1.60
2023-02-23T05:55:00.482Z,1.83
2023-02-23T06:00:07.436Z,1.50
2023-02-23T06:05:11.098Z,1.77
2023-02-23T06:10:14.599Z,1.70
2023-02-23T06:15:19.461Z,1.88
2023-02-23T06:20:22.957Z,2.00
2023-02-23T06:25:26.234Z,1.70
2023-02-23T06:30:31.054Z,1.98
2023-02-23T06:35:34.506Z,1.85
2023-02-23T06:40:39.154Z,1.65
2023-02-23T06:45:44.088Z,2.33
2023-02-23T06:50:47.348Z,1.80
2023-02-23T06:55:50.538Z,1.77
2023-02-23T07:00:56.958Z,1.77
2023-02-23T07:06:00.197Z,1.75
2023-02-23T07:11:08.583Z,1.88
2023-02-23T07:16:15.079Z,2.10
2023-02-23T07:21:18.602Z,1.63
2023-02-23T07:26:21.957Z,1.73
2023-02-23T07:31:26.963Z,1.70
2023-02-23T07:36:30.175Z,1.73
2023-02-23T07:41:33.366Z,2.00
2023-02-23T07:46:37.972Z,2.22
2023-02-23T07:51:41.544Z,1.80
2023-02-23T07:56:44.973Z,1.92
2023-02-23T08:01:49.514Z,2.17
2023-02-23T08:06:52.679Z,2.00
2023-02-23T08:11:55.797Z,2.50
2023-02-23T08:17:01.848Z,2.17
2023-02-23T08:22:07.268Z,1.63
2023-02-23T08:27:12.925Z,2.05
2023-02-23T08:32:17.675Z,1.90
2023-02-23T08:37:20.917Z,1.60
2023-02-23T08:42:24.085Z,1.75
2023-02-23T08:47:28.700Z,1.58
2023-02-23T08:52:31.843Z,1.83
2023-02-23T08:57:35.037Z,1.90
2023-02-23T09:02:39.819Z,1.95
2023-02-23T09:07:45.233Z,3.05
2023-02-23T09:12:48.484Z,2.20
2023-02-23T09:17:54.601Z,2.15
2023-02-23T09:22:57.786Z,1.80
2023-02-23T09:28:01.005Z,2.50
2023-02-23T09:33:07.504Z,2.47
2023-02-23T09:38:11.219Z,2.15
2023-02-23T09:43:17.623Z,2.40
2023-02-23T09:48:23.840Z,2.75
2023-02-23T09:53:37.101Z,2.88
2023-02-23T09:58:40.916Z,2.88
2023-02-23T10:03:54.453Z,2.28
2023-02-23T10:09:07.732Z,2.10
2023-02-23T10:14:24.476Z,2.65
2023-02-23T10:19:38.274Z,2.40
2023-02-23T10:24:45.550Z,2.30
2023-02-23T10:29:51.599Z,2.72
2023-02-23T10:34:57.682Z,2.80
2023-02-23T10:40:00.855Z,3.88
2023-02-23T10:45:04.096Z,3.53
2023-02-23T10:50:12.657Z,2.45
2023-02-23T10:55:24.717Z,3.08
2023-02-23T11:00:33.001Z,2.95
2023-02-23T11:05:45.602Z,3.40
2023-02-23T11:11:21.936Z,3.35
2023-02-23T11:16:26.866Z,2.78
2023-02-23T11:21:34.673Z,2.45
2023-02-23T11:26:42.063Z,2.20
2023-02-23T11:31:50.201Z,2.42
2023-02-23T11:37:04.747Z,2.03
2023-02-23T11:42:17.117Z,2.20
2023-02-23T11:47:23.121Z,2.30
2023-02-23T11:52:28.911Z,1.80
2023-02-23T11:57:35.303Z,2.60
2023-02-23T12:02:51.101Z,2.40
2023-02-23T12:08:03.993Z,2.00
2023-02-23T12:13:20.724Z,1.98
2023-02-23T12:18:38.382Z,2.25
2023-02-23T12:23:50.361Z,1.98
2023-02-23T12:28:59.631Z,2.08
2023-02-23T12:34:06.337Z,1.85
2023-02-23T12:39:18.659Z,2.10
2023-02-23T12:44:35.557Z,2.25
2023-02-23T12:49:44.626Z,1.92
2023-02-23T12:54:50.071Z,1.90
2023-02-23T13:00:24.147Z,1.63
2023-02-23T13:05:29.713Z,1.95
2023-02-23T13:10:43.655Z,1.80
2023-02-23T13:15:58.593Z,1.80
2023-02-23T13:26:21.081Z,0.90
2023-02-23T13:31:26.987Z,2.20
2023-02-23T13:36:32.643Z,2.70
2023-02-23T13:41:43.004Z,2.00
2023-02-23T13:46:54.617Z,1.98
2023-02-23T13:52:00.635Z,1.90
2023-02-23T13:57:12.504Z,2.22
2023-02-23T14:02:33.302Z,2.13
2023-02-23T14:07:42.985Z,1.88
2023-02-23T14:13:07.820Z,2.60
2023-02-23T14:18:33.846Z,2.38
2023-02-23T14:23:50.201Z,1.98
2023-02-23T14:29:21.555Z,1.80
2023-02-23T14:34:43.256Z,1.80
2023-02-23T14:39:46.825Z,1.70
2023-02-23T14:44:52.825Z,1.80
2023-02-23T14:49:58.457Z,1.50
2023-02-23T14:55:15.703Z,1.48
2023-02-23T15:00:24.210Z,1.60
2023-02-23T15:05:30.439Z,2.33
2023-02-23T15:10:36.774Z,2.17
2023-02-23T15:15:46.618Z,1.77
2023-02-23T15:20:50.511Z,1.73
2023-02-23T15:25:53.890Z,1.50
2023-02-23T15:31:02.383Z,1.13
2023-02-23T15:36:10.757Z,1.63
2023-02-23T15:41:19.907Z,1.27
2023-02-23T15:46:29.753Z,1.52
2023-02-23T15:51:37.696Z,1.60
2023-02-23T15:56:41.288Z,1.60
2023-02-23T16:01:47.209Z,2.28
2023-02-23T16:06:53.283Z,2.50
2023-02-23T16:12:01.607Z,2.38
2023-02-23T16:17:11.974Z,2.45
2023-02-23T16:22:23.292Z,1.65
2023-02-23T16:27:28.402Z,1.25
2023-02-23T16:32:39.668Z,1.92
2023-02-23T16:37:58.314Z,2.80
2023-02-23T16:43:01.475Z,2.90
2023-02-23T16:48:11.615Z,2.30
2023-02-23T16:53:15.456Z,2.50
2023-02-23T16:58:21.059Z,1.58
2023-02-23T17:03:27.423Z,2.15
2023-02-23T17:08:31.837Z,1.63
2023-02-23T17:13:35.514Z,1.70
2023-02-23T17:18:42.932Z,3.08
2023-02-23T17:23:51.118Z,2.72
2023-02-23T17:28:55.065Z,4.05
2023-02-23T17:33:59.748Z,2.90
2023-02-23T17:39:03.238Z,3.00
2023-02-23T17:44:06.431Z,3.10
2023-02-23T17:49:11.139Z,2.25
2023-02-23T17:54:14.322Z,2.83
2023-02-23T17:59:17.460Z,3.15
2023-02-23T18:04:22.026Z,2.70
2023-02-23T18:09:25.164Z,2.97
2023-02-23T18:14:28.364Z,2.90
2023-02-23T18:19:33.071Z,4.60
2023-02-23T18:24:36.429Z,5.65
2023-02-23T18:29:40.015Z,4.82
2023-02-23T18:34:44.564Z,6.47
2023-02-23T18:39:47.675Z,6.20
2023-02-23T18:44:51.050Z,5.35
2023-02-23T18:49:56.747Z,5.82
2023-02-23T18:55:00.000Z,4.68
2023-02-23T19:00:07.197Z,4.55
2023-02-23T19:05:13.021Z,4.20
2023-02-23T19:10:16.558Z,4.00
2023-02-23T19:15:19.940Z,3.67
2023-02-23T19:20:24.637Z,3.13
2023-02-23T19:25:27.775Z,3.50
2023-02-23T19:30:30.965Z,3.60
2023-02-23T19:35:35.473Z,3.47
2023-02-23T19:40:42.761Z,3.47
2023-02-23T19:45:46.919Z,3.35
2023-02-23T19:50:51.775Z,3.50
2023-02-23T19:56:00.610Z,3.67
2023-02-23T20:01:07.889Z,4.22
2023-02-23T20:06:14.082Z,4.07
2023-02-23T20:11:17.421Z,3.60
2023-02-23T20:16:20.680Z,3.90
2023-02-23T20:21:26.866Z,4.35
2023-02-23T20:26:34.517Z,4.60
2023-02-23T20:31:39.677Z,4.10
2023-02-23T20:41:53.498Z,5.88
2023-02-23T20:46:56.913Z,5.32
2023-02-23T20:52:01.484Z,6.43
2023-02-23T20:57:09.145Z,5.83
2023-02-23T21:02:14.101Z,5.97
2023-02-23T21:07:18.684Z,6.10
2023-02-23T21:12:21.933Z,6.57
2023-02-23T21:17:25.048Z,5.43
2023-02-23T21:22:29.673Z,5.80
2023-02-23T21:27:33.163Z,5.33
2023-02-23T21:32:41.360Z,5.32
2023-02-23T21:37:47.010Z,5.63
2023-02-23T21:42:50.910Z,4.95
2023-02-23T21:47:54.056Z,5.35
2023-02-23T21:52:58.972Z,5.70
2023-02-23T21:58:03.169Z,5.65
2023-02-23T22:03:06.413Z,5.88
2023-02-23T22:08:15.716Z,5.68
2023-02-23T22:13:18.837Z,4.72
2023-02-23T22:18:24.334Z,6.47
2023-02-23T22:23:31.462Z,6.47
2023-02-23T22:28:35.655Z,6.20
2023-02-23T22:33:41.704Z,6.38
2023-02-23T22:38:46.884Z,6.57
2023-02-23T22:43:50.601Z,6.25
2023-02-23T22:48:53.766Z,6.13
2023-02-23T22:53:58.271Z,6.03
2023-02-23T22:59:06.122Z,6.17
2023-02-23T23:04:11.184Z,6.50
2023-02-23T23:09:16.701Z,6.72
2023-02-23T23:14:20.505Z,6.38
2023-02-23T23:19:24.804Z,6.75
2023-02-23T23:24:29.485Z,7.20
2023-02-23T23:29:32.828Z,7.23
2023-02-23T23:34:36.003Z,7.50
2023-02-23T23:39:40.670Z,6.90
2023-02-23T23:44:44.509Z,6.33
2023-02-23T23:49:47.717Z,7.20
2023-02-23T23:54:52.300Z,6.88
2023-02-23T23:59:56.441Z,6.70
